sensor_id;sensor_type;location;lat;lon;timestamp;temperature;humidity
22623;DHT22;11478;51.094;7.030;2022-09-09T00:05:09;15.50;99.90
22623;DHT22;11478;51.094;7.030;2022-09-09T00:07:53;15.40;99.90
22623;DHT22;11478;51.094;7.030;2022-09-09T00:10:28;15.40;99.90
22623;DHT22;11478;51.094;7.030;2022-09-09T00:13:03;15.30;99.90
22623;DHT22;11478;51.094;7.030;2022-09-09T00:16:17;15.30;99.90
22623;DHT22;11478;51.094;7.030;2022-09-09T00:21:47;15.20;99.90
22623;DHT22;11478;51.094;7.030;2022-09-09T00:24:23;15.10;99.90
22623;DHT22;11478;51.094;7.030;2022-09-09T00:26:54;15.10;99.90
22623;DHT22;11478;51.094;7.030;2022-09-09T00:32:21;15.00;99.90
22623;DHT22;11478;51.094;7.030;2022-09-09T00:34:58;15.00;99.90
22623;DHT22;11478;51.094;7.030;2022-09-09T00:37:29;15.00;99.90
22623;DHT22;11478;51.094;7.030;2022-09-09T00:39:59;15.00;99.90
22623;DHT22;11478;51.094;7.030;2022-09-09T00:48:28;15.00;99.90
22623;DHT22;11478;51.094;7.030;2022-09-09T00:51:02;15.00;99.90
22623;DHT22;11478;51.094;7.030;2022-09-09T00:56:26;15.00;99.90
22623;DHT22;11478;51.094;7.030;2022-09-09T01:01:37;15.10;99.90
22623;DHT22;11478;51.094;7.030;2022-09-09T01:04:13;15.10;99.90
22623;DHT22;11478;51.094;7.030;2022-09-09T01:06:42;15.10;99.90
22623;DHT22;11478;51.094;7.030;2022-09-09T01:09:54;15.10;99.90
22623;DHT22;11478;51.094;7.030;2022-09-09T01:12:25;15.10;99.90
22623;DHT22;11478;51.094;7.030;2022-09-09T01:15:24;15.20;99.90
22623;DHT22;11478;51.094;7.030;2022-09-09T01:18:07;15.10;99.90
22623;DHT22;11478;51.094;7.030;2022-09-09T01:28:50;15.10;99.90
22623;DHT22;11478;51.094;7.030;2022-09-09T01:31:54;15.00;99.90
22623;DHT22;11478;51.094;7.030;2022-09-09T01:34:21;15.00;99.90
22623;DHT22;11478;51.094;7.030;2022-09-09T01:36:56;15.00;99.90
22623;DHT22;11478;51.094;7.030;2022-09-09T01:39:23;15.00;99.90
22623;DHT22;11478;51.094;7.030;2022-09-09T01:41:49;14.90;99.90
22623;DHT22;11478;51.094;7.030;2022-09-09T01:44:15;14.90;99.90
22623;DHT22;11478;51.094;7.030;2022-09-09T01:46:41;14.90;99.90
22623;DHT22;11478;51.094;7.030;2022-09-09T01:49:07;14.80;99.90
22623;DHT22;11478;51.094;7.030;2022-09-09T01:51:36;14.80;99.90
22623;DHT22;11478;51.094;7.030;2022-09-09T01:54:03;14.70;99.90
22623;DHT22;11478;51.094;7.030;2022-09-09T02:01:57;14.60;99.90
22623;DHT22;11478;51.094;7.030;2022-09-09T02:09:59;14.70;99.90
22623;DHT22;11478;51.094;7.030;2022-09-09T02:12:27;14.60;99.90
22623;DHT22;11478;51.094;7.030;2022-09-09T02:15:01;14.60;99.90
22623;DHT22;11478;51.094;7.030;2022-09-09T02:17:32;14.70;99.90
22623;DHT22;11478;51.094;7.030;2022-09-09T02:20:09;14.70;99.90
22623;DHT22;11478;51.094;7.030;2022-09-09T02:22:37;14.70;99.90
22623;DHT22;11478;51.094;7.030;2022-09-09T02:25:13;14.70;99.90
22623;DHT22;11478;51.094;7.030;2022-09-09T02:27:41;14.70;99.90
22623;DHT22;11478;51.094;7.030;2022-09-09T02:30:11;14.80;99.90
22623;DHT22;11478;51.094;7.030;2022-09-09T02:32:39;14.80;99.90
22623;DHT22;11478;51.094;7.030;2022-09-09T02:35:15;14.80;99.90
22623;DHT22;11478;51.094;7.030;2022-09-09T02:37:45;14.80;99.90
22623;DHT22;11478;51.094;7.030;2022-09-09T02:40:19;14.80;99.90
22623;DHT22;11478;51.094;7.030;2022-09-09T02:42:47;14.90;99.90
22623;DHT22;11478;51.094;7.030;2022-09-09T02:45:17;14.90;99.90
22623;DHT22;11478;51.094;7.030;2022-09-09T02:48:09;14.90;99.90
22623;DHT22;11478;51.094;7.030;2022-09-09T02:50:49;14.90;99.90
22623;DHT22;11478;51.094;7.030;2022-09-09T02:53:25;14.90;99.90
22623;DHT22;11478;51.094;7.030;2022-09-09T02:55:59;14.90;99.90
22623;DHT22;11478;51.094;7.030;2022-09-09T02:58:30;14.90;99.90
22623;DHT22;11478;51.094;7.030;2022-09-09T03:00:58;14.90;99.90
22623;DHT22;11478;51.094;7.030;2022-09-09T03:03:26;14.90;99.90
22623;DHT22;11478;51.094;7.030;2022-09-09T03:05:56;14.90;99.90
22623;DHT22;11478;51.094;7.030;2022-09-09T03:08:22;14.90;99.90
22623;DHT22;11478;51.094;7.030;2022-09-09T03:10:48;14.90;99.90
22623;DHT22;11478;51.094;7.030;2022-09-09T03:13:14;14.90;99.90
22623;DHT22;11478;51.094;7.030;2022-09-09T03:15:41;14.90;99.90
22623;DHT22;11478;51.094;7.030;2022-09-09T03:18:07;14.90;99.90
22623;DHT22;11478;51.094;7.030;2022-09-09T03:20:37;14.90;99.90
22623;DHT22;11478;51.094;7.030;2022-09-09T03:23:03;14.90;99.90
22623;DHT22;11478;51.094;7.030;2022-09-09T03:25:29;14.90;99.90
22623;DHT22;11478;51.094;7.030;2022-09-09T03:27:55;14.90;99.90
22623;DHT22;11478;51.094;7.030;2022-09-09T03:30:27;14.90;99.90
22623;DHT22;11478;51.094;7.030;2022-09-09T03:32:53;14.90;99.90
22623;DHT22;11478;51.094;7.030;2022-09-09T03:35:23;14.90;99.90
22623;DHT22;11478;51.094;7.030;2022-09-09T03:37:49;14.90;99.90
22623;DHT22;11478;51.094;7.030;2022-09-09T03:40:26;14.90;99.90
22623;DHT22;11478;51.094;7.030;2022-09-09T03:42:52;14.80;99.90
22623;DHT22;11478;51.094;7.030;2022-09-09T03:45:18;14.80;99.90
22623;DHT22;11478;51.094;7.030;2022-09-09T03:47:47;14.80;99.90
22623;DHT22;11478;51.094;7.030;2022-09-09T03:50:13;14.70;99.90
22623;DHT22;11478;51.094;7.030;2022-09-09T03:52:40;14.70;99.90
22623;DHT22;11478;51.094;7.030;2022-09-09T03:55:08;14.70;99.90
22623;DHT22;11478;51.094;7.030;2022-09-09T03:57:35;14.70;99.90
22623;DHT22;11478;51.094;7.030;2022-09-09T04:00:07;14.70;99.90
22623;DHT22;11478;51.094;7.030;2022-09-09T04:02:33;14.70;99.90
22623;DHT22;11478;51.094;7.030;2022-09-09T04:04:59;14.70;99.90
22623;DHT22;11478;51.094;7.030;2022-09-09T04:07:33;14.70;99.90
22623;DHT22;11478;51.094;7.030;2022-09-09T04:10:11;14.70;99.90
22623;DHT22;11478;51.094;7.030;2022-09-09T04:12:38;14.70;99.90
22623;DHT22;11478;51.094;7.030;2022-09-09T04:15:05;14.70;99.90
22623;DHT22;11478;51.094;7.030;2022-09-09T04:17:31;14.70;99.90
22623;DHT22;11478;51.094;7.030;2022-09-09T04:19:58;14.70;99.90
22623;DHT22;11478;51.094;7.030;2022-09-09T04:22:24;14.70;99.90
22623;DHT22;11478;51.094;7.030;2022-09-09T04:25:06;14.70;99.90
22623;DHT22;11478;51.094;7.030;2022-09-09T04:27:32;14.80;99.90
22623;DHT22;11478;51.094;7.030;2022-09-09T04:29:59;14.80;99.90
22623;DHT22;11478;51.094;7.030;2022-09-09T04:32:25;14.80;99.90
22623;DHT22;11478;51.094;7.030;2022-09-09T04:34:54;14.80;99.90
22623;DHT22;11478;51.094;7.030;2022-09-09T04:37:20;14.80;99.90
22623;DHT22;11478;51.094;7.030;2022-09-09T04:39:50;14.80;99.90
22623;DHT22;11478;51.094;7.030;2022-09-09T04:42:16;14.80;99.90
22623;DHT22;11478;51.094;7.030;2022-09-09T04:45:02;14.90;99.90
22623;DHT22;11478;51.094;7.030;2022-09-09T04:47:27;14.90;99.90
22623;DHT22;11478;51.094;7.030;2022-09-09T04:49:56;14.90;99.90
22623;DHT22;11478;51.094;7.030;2022-09-09T04:52:22;14.90;99.90
22623;DHT22;11478;51.094;7.030;2022-09-09T04:54:54;14.90;99.90
22623;DHT22;11478;51.094;7.030;2022-09-09T04:57:20;14.90;99.90
22623;DHT22;11478;51.094;7.030;2022-09-09T04:59:57;14.80;99.90
22623;DHT22;11478;51.094;7.030;2022-09-09T05:02:22;14.80;99.90
22623;DHT22;11478;51.094;7.030;2022-09-09T05:04:56;14.90;99.90
22623;DHT22;11478;51.094;7.030;2022-09-09T05:07:22;14.90;99.90
22623;DHT22;11478;51.094;7.030;2022-09-09T05:09:52;14.80;99.90
22623;DHT22;11478;51.094;7.030;2022-09-09T05:12:21;14.90;99.90
22623;DHT22;11478;51.094;7.030;2022-09-09T05:14:49;14.90;99.90
22623;DHT22;11478;51.094;7.030;2022-09-09T05:17:28;14.90;99.90
22623;DHT22;11478;51.094;7.030;2022-09-09T05:19:54;14.90;99.90
22623;DHT22;11478;51.094;7.030;2022-09-09T05:22:20;14.90;99.90
22623;DHT22;11478;51.094;7.030;2022-09-09T05:24:46;14.80;99.90
22623;DHT22;11478;51.094;7.030;2022-09-09T05:27:13;14.90;99.90
22623;DHT22;11478;51.094;7.030;2022-09-09T05:29:39;14.90;99.90
22623;DHT22;11478;51.094;7.030;2022-09-09T05:32:08;15.00;99.90
22623;DHT22;11478;51.094;7.030;2022-09-09T05:34:35;15.00;99.90
22623;DHT22;11478;51.094;7.030;2022-09-09T05:37:04;15.00;99.90
22623;DHT22;11478;51.094;7.030;2022-09-09T05:39:30;15.00;99.90
22623;DHT22;11478;51.094;7.030;2022-09-09T05:42:01;15.00;99.90
22623;DHT22;11478;51.094;7.030;2022-09-09T05:44:28;15.10;99.90
22623;DHT22;11478;51.094;7.030;2022-09-09T05:46:54;15.10;99.90
22623;DHT22;11478;51.094;7.030;2022-09-09T05:49:21;15.10;99.90
22623;DHT22;11478;51.094;7.030;2022-09-09T05:51:47;15.10;99.90
22623;DHT22;11478;51.094;7.030;2022-09-09T05:54:13;15.20;99.90
22623;DHT22;11478;51.094;7.030;2022-09-09T05:56:50;15.20;99.90
22623;DHT22;11478;51.094;7.030;2022-09-09T05:59:16;15.20;99.90
22623;DHT22;11478;51.094;7.030;2022-09-09T06:01:42;15.20;99.90
22623;DHT22;11478;51.094;7.030;2022-09-09T06:04:08;15.30;99.90
22623;DHT22;11478;51.094;7.030;2022-09-09T06:06:37;15.30;99.90
22623;DHT22;11478;51.094;7.030;2022-09-09T06:09:08;15.30;99.90
22623;DHT22;11478;51.094;7.030;2022-09-09T06:11:38;15.30;99.90
22623;DHT22;11478;51.094;7.030;2022-09-09T06:14:04;15.40;99.90
22623;DHT22;11478;51.094;7.030;2022-09-09T06:16:31;15.40;99.90
22623;DHT22;11478;51.094;7.030;2022-09-09T06:19:00;15.40;99.90
22623;DHT22;11478;51.094;7.030;2022-09-09T06:21:35;15.40;99.90
22623;DHT22;11478;51.094;7.030;2022-09-09T06:24:03;15.50;99.90
22623;DHT22;11478;51.094;7.030;2022-09-09T06:26:37;15.50;99.90
22623;DHT22;11478;51.094;7.030;2022-09-09T06:29:04;15.50;99.90
22623;DHT22;11478;51.094;7.030;2022-09-09T06:31:32;15.50;99.90
22623;DHT22;11478;51.094;7.030;2022-09-09T06:34:03;15.50;99.90
22623;DHT22;11478;51.094;7.030;2022-09-09T06:36:32;15.50;99.90
22623;DHT22;11478;51.094;7.030;2022-09-09T06:38:59;15.60;99.90
22623;DHT22;11478;51.094;7.030;2022-09-09T06:41:30;15.60;99.90
22623;DHT22;11478;51.094;7.030;2022-09-09T06:43:57;15.60;99.90
22623;DHT22;11478;51.094;7.030;2022-09-09T06:46:25;15.60;99.90
22623;DHT22;11478;51.094;7.030;2022-09-09T06:48:54;15.60;99.90
22623;DHT22;11478;51.094;7.030;2022-09-09T06:51:26;15.70;99.90
22623;DHT22;11478;51.094;7.030;2022-09-09T06:54:04;15.70;99.90
22623;DHT22;11478;51.094;7.030;2022-09-09T06:59:00;15.80;99.90
22623;DHT22;11478;51.094;7.030;2022-09-09T07:01:34;15.80;99.90
22623;DHT22;11478;51.094;7.030;2022-09-09T07:04:07;15.80;99.90
22623;DHT22;11478;51.094;7.030;2022-09-09T07:06:39;15.90;99.90
22623;DHT22;11478;51.094;7.030;2022-09-09T07:09:08;16.00;99.90
22623;DHT22;11478;51.094;7.030;2022-09-09T07:11:39;16.20;99.90
22623;DHT22;11478;51.094;7.030;2022-09-09T07:14:05;16.40;99.90
22623;DHT22;11478;51.094;7.030;2022-09-09T07:16:31;16.60;99.90
22623;DHT22;11478;51.094;7.030;2022-09-09T07:18:59;16.80;99.90
22623;DHT22;11478;51.094;7.030;2022-09-09T07:21:27;16.90;99.90
22623;DHT22;11478;51.094;7.030;2022-09-09T07:23:53;17.00;99.90
22623;DHT22;11478;51.094;7.030;2022-09-09T07:26:25;17.10;99.90
22623;DHT22;11478;51.094;7.030;2022-09-09T07:28:51;17.10;99.90
22623;DHT22;11478;51.094;7.030;2022-09-09T07:31:29;17.10;99.90
22623;DHT22;11478;51.094;7.030;2022-09-09T07:33:59;17.00;99.90
22623;DHT22;11478;51.094;7.030;2022-09-09T07:36:34;17.00;99.90
22623;DHT22;11478;51.094;7.030;2022-09-09T07:39:03;16.90;99.90
22623;DHT22;11478;51.094;7.030;2022-09-09T07:44:24;16.90;99.90
22623;DHT22;11478;51.094;7.030;2022-09-09T07:46:50;16.90;99.90
22623;DHT22;11478;51.094;7.030;2022-09-09T07:49:17;16.80;99.90
22623;DHT22;11478;51.094;7.030;2022-09-09T07:51:46;16.90;99.90
22623;DHT22;11478;51.094;7.030;2022-09-09T07:54:14;16.80;99.90
22623;DHT22;11478;51.094;7.030;2022-09-09T07:56:42;16.80;99.90
22623;DHT22;11478;51.094;7.030;2022-09-09T07:59:08;16.80;99.90
22623;DHT22;11478;51.094;7.030;2022-09-09T08:01:40;16.80;99.90
22623;DHT22;11478;51.094;7.030;2022-09-09T08:04:09;16.80;99.90
22623;DHT22;11478;51.094;7.030;2022-09-09T08:06:38;16.90;99.90
22623;DHT22;11478;51.094;7.030;2022-09-09T08:09:06;17.00;99.90
22623;DHT22;11478;51.094;7.030;2022-09-09T08:11:32;17.00;99.90
22623;DHT22;11478;51.094;7.030;2022-09-09T08:14:00;17.10;99.90
22623;DHT22;11478;51.094;7.030;2022-09-09T08:16:32;17.20;99.90
22623;DHT22;11478;51.094;7.030;2022-09-09T08:19:02;17.20;99.90
22623;DHT22;11478;51.094;7.030;2022-09-09T08:21:29;17.20;99.90
22623;DHT22;11478;51.094;7.030;2022-09-09T08:23:57;17.30;99.90
22623;DHT22;11478;51.094;7.030;2022-09-09T08:26:26;17.30;99.90
22623;DHT22;11478;51.094;7.030;2022-09-09T08:28:55;17.30;99.90
22623;DHT22;11478;51.094;7.030;2022-09-09T08:31:30;17.30;99.90
22623;DHT22;11478;51.094;7.030;2022-09-09T08:33:57;17.30;99.90
22623;DHT22;11478;51.094;7.030;2022-09-09T08:36:30;17.30;99.90
22623;DHT22;11478;51.094;7.030;2022-09-09T08:39:14;17.30;99.90
22623;DHT22;11478;51.094;7.030;2022-09-09T08:53:01;17.10;99.90
22623;DHT22;11478;51.094;7.030;2022-09-09T08:58:16;17.10;99.90
22623;DHT22;11478;51.094;7.030;2022-09-09T09:09:25;17.40;99.90
22623;DHT22;11478;51.094;7.030;2022-09-09T09:12:02;17.50;99.90
22623;DHT22;11478;51.094;7.030;2022-09-09T09:14:30;17.60;99.90
22623;DHT22;11478;51.094;7.030;2022-09-09T09:17:25;17.60;99.90
22623;DHT22;11478;51.094;7.030;2022-09-09T09:19:51;17.60;99.90
22623;DHT22;11478;51.094;7.030;2022-09-09T09:22:26;17.60;99.90
22623;DHT22;11478;51.094;7.030;2022-09-09T09:25:11;17.70;99.90
22623;DHT22;11478;51.094;7.030;2022-09-09T09:31:06;17.90;99.90
22623;DHT22;11478;51.094;7.030;2022-09-09T09:33:46;18.00;99.90
22623;DHT22;11478;51.094;7.030;2022-09-09T09:36:14;18.00;99.90
22623;DHT22;11478;51.094;7.030;2022-09-09T09:39:02;18.00;99.90
22623;DHT22;11478;51.094;7.030;2022-09-09T09:44:30;18.00;99.90
22623;DHT22;11478;51.094;7.030;2022-09-09T09:47:19;18.00;99.90
22623;DHT22;11478;51.094;7.030;2022-09-09T09:52:27;17.90;99.90
22623;DHT22;11478;51.094;7.030;2022-09-09T09:54:55;17.90;99.90
22623;DHT22;11478;51.094;7.030;2022-09-09T09:57:31;18.00;99.90
22623;DHT22;11478;51.094;7.030;2022-09-09T10:00:17;18.00;99.90
22623;DHT22;11478;51.094;7.030;2022-09-09T10:02:45;18.00;99.90
22623;DHT22;11478;51.094;7.030;2022-09-09T10:05:18;18.00;99.90
22623;DHT22;11478;51.094;7.030;2022-09-09T10:07:45;18.10;99.90
22623;DHT22;11478;51.094;7.030;2022-09-09T10:10:20;18.10;99.90
22623;DHT22;11478;51.094;7.030;2022-09-09T10:32:51;18.90;99.90
22623;DHT22;11478;51.094;7.030;2022-09-09T10:35:31;19.00;99.90
22623;DHT22;11478;51.094;7.030;2022-09-09T10:39:01;19.20;99.90
22623;DHT22;11478;51.094;7.030;2022-09-09T10:55:32;19.50;99.90
22623;DHT22;11478;51.094;7.030;2022-09-09T10:58:03;19.50;99.90
22623;DHT22;11478;51.094;7.030;2022-09-09T11:00:51;19.50;99.90
22623;DHT22;11478;51.094;7.030;2022-09-09T11:03:25;19.60;99.90
22623;DHT22;11478;51.094;7.030;2022-09-09T11:05:57;19.60;99.90
22623;DHT22;11478;51.094;7.030;2022-09-09T11:08:29;19.60;99.90
22623;DHT22;11478;51.094;7.030;2022-09-09T11:14:11;19.80;99.90
22623;DHT22;11478;51.094;7.030;2022-09-09T11:16:53;20.00;99.90
22623;DHT22;11478;51.094;7.030;2022-09-09T11:19:48;20.20;99.90
22623;DHT22;11478;51.094;7.030;2022-09-09T11:22:34;20.20;99.90
22623;DHT22;11478;51.094;7.030;2022-09-09T11:25:15;20.20;99.90
22623;DHT22;11478;51.094;7.030;2022-09-09T11:33:48;20.20;99.90
22623;DHT22;11478;51.094;7.030;2022-09-09T11:39:17;20.10;99.90
22623;DHT22;11478;51.094;7.030;2022-09-09T11:41:50;19.90;99.90
22623;DHT22;11478;51.094;7.030;2022-09-09T11:44:29;19.80;99.90
22623;DHT22;11478;51.094;7.030;2022-09-09T11:46:56;19.70;99.90
22623;DHT22;11478;51.094;7.030;2022-09-09T11:49:28;19.60;99.90
22623;DHT22;11478;51.094;7.030;2022-09-09T11:51:57;19.50;99.90
22623;DHT22;11478;51.094;7.030;2022-09-09T11:54:33;19.40;99.90
22623;DHT22;11478;51.094;7.030;2022-09-09T11:57:33;19.40;99.90
22623;DHT22;11478;51.094;7.030;2022-09-09T12:00:00;19.40;99.90
22623;DHT22;11478;51.094;7.030;2022-09-09T12:02:35;19.40;99.90
22623;DHT22;11478;51.094;7.030;2022-09-09T12:05:11;19.50;99.90
22623;DHT22;11478;51.094;7.030;2022-09-09T12:07:58;19.50;99.90
22623;DHT22;11478;51.094;7.030;2022-09-09T12:10:31;19.50;99.90
22623;DHT22;11478;51.094;7.030;2022-09-09T12:15:49;19.40;99.90
22623;DHT22;11478;51.094;7.030;2022-09-09T12:18:37;19.30;99.90
22623;DHT22;11478;51.094;7.030;2022-09-09T12:23:54;19.20;99.90
22623;DHT22;11478;51.094;7.030;2022-09-09T12:26:47;19.10;99.90
22623;DHT22;11478;51.094;7.030;2022-09-09T12:34:47;18.90;99.90
22623;DHT22;11478;51.094;7.030;2022-09-09T12:37:29;18.80;99.90
22623;DHT22;11478;51.094;7.030;2022-09-09T12:40:25;18.80;99.90
22623;DHT22;11478;51.094;7.030;2022-09-09T12:42:51;18.70;99.90
22623;DHT22;11478;51.094;7.030;2022-09-09T12:45:28;18.50;99.90
22623;DHT22;11478;51.094;7.030;2022-09-09T12:48:05;18.60;99.90
22623;DHT22;11478;51.094;7.030;2022-09-09T12:50:43;18.60;99.90
22623;DHT22;11478;51.094;7.030;2022-09-09T12:53:21;18.60;99.90
22623;DHT22;11478;51.094;7.030;2022-09-09T12:56:08;18.60;99.90
22623;DHT22;11478;51.094;7.030;2022-09-09T12:59:01;18.60;99.90
22623;DHT22;11478;51.094;7.030;2022-09-09T13:01:29;18.60;99.90
22623;DHT22;11478;51.094;7.030;2022-09-09T13:03:55;18.60;99.90
22623;DHT22;11478;51.094;7.030;2022-09-09T13:06:26;18.60;99.90
22623;DHT22;11478;51.094;7.030;2022-09-09T13:08:54;18.60;99.90
22623;DHT22;11478;51.094;7.030;2022-09-09T13:11:48;18.40;99.90
22623;DHT22;11478;51.094;7.030;2022-09-09T13:14:34;18.20;99.90
22623;DHT22;11478;51.094;7.030;2022-09-09T13:17:05;17.90;99.90
22623;DHT22;11478;51.094;7.030;2022-09-09T13:19:36;17.80;99.90
22623;DHT22;11478;51.094;7.030;2022-09-09T13:22:14;17.80;99.90
22623;DHT22;11478;51.094;7.030;2022-09-09T13:24:41;17.90;99.90
22623;DHT22;11478;51.094;7.030;2022-09-09T13:27:28;17.90;99.90
22623;DHT22;11478;51.094;7.030;2022-09-09T13:29:55;17.90;99.90
22623;DHT22;11478;51.094;7.030;2022-09-09T13:32:23;17.90;99.90
22623;DHT22;11478;51.094;7.030;2022-09-09T13:35:00;17.90;99.90
22623;DHT22;11478;51.094;7.030;2022-09-09T13:37:36;17.90;99.90
22623;DHT22;11478;51.094;7.030;2022-09-09T13:40:04;17.90;99.90
22623;DHT22;11478;51.094;7.030;2022-09-09T13:42:39;17.80;99.90
22623;DHT22;11478;51.094;7.030;2022-09-09T13:45:05;17.80;99.90
22623;DHT22;11478;51.094;7.030;2022-09-09T13:47:34;17.80;99.90
22623;DHT22;11478;51.094;7.030;2022-09-09T13:52:44;17.60;99.90
22623;DHT22;11478;51.094;7.030;2022-09-09T13:55:13;17.60;99.90
22623;DHT22;11478;51.094;7.030;2022-09-09T13:57:39;17.50;99.90
22623;DHT22;11478;51.094;7.030;2022-09-09T14:00:06;17.60;99.90
22623;DHT22;11478;51.094;7.030;2022-09-09T14:02:34;17.60;99.90
22623;DHT22;11478;51.094;7.030;2022-09-09T14:05:18;17.60;99.90
22623;DHT22;11478;51.094;7.030;2022-09-09T14:07:44;17.60;99.90
22623;DHT22;11478;51.094;7.030;2022-09-09T14:10:14;17.60;99.90
22623;DHT22;11478;51.094;7.030;2022-09-09T14:12:40;17.50;99.90
22623;DHT22;11478;51.094;7.030;2022-09-09T14:15:09;17.40;99.90
22623;DHT22;11478;51.094;7.030;2022-09-09T14:17:36;17.40;99.90
22623;DHT22;11478;51.094;7.030;2022-09-09T14:20:07;17.30;99.90
22623;DHT22;11478;51.094;7.030;2022-09-09T14:22:38;17.30;99.90
22623;DHT22;11478;51.094;7.030;2022-09-09T14:25:07;17.30;99.90
22623;DHT22;11478;51.094;7.030;2022-09-09T14:27:36;17.20;99.90
22623;DHT22;11478;51.094;7.030;2022-09-09T14:30:05;17.20;99.90
22623;DHT22;11478;51.094;7.030;2022-09-09T14:32:31;17.20;99.90
22623;DHT22;11478;51.094;7.030;2022-09-09T14:34:57;17.20;99.90
22623;DHT22;11478;51.094;7.030;2022-09-09T14:37:23;17.00;99.90
22623;DHT22;11478;51.094;7.030;2022-09-09T14:39:49;16.70;99.90
22623;DHT22;11478;51.094;7.030;2022-09-09T14:42:17;16.50;99.90
22623;DHT22;11478;51.094;7.030;2022-09-09T14:44:43;16.40;99.90
22623;DHT22;11478;51.094;7.030;2022-09-09T14:47:08;16.40;99.90
22623;DHT22;11478;51.094;7.030;2022-09-09T14:49:35;16.30;99.90
22623;DHT22;11478;51.094;7.030;2022-09-09T14:52:01;16.30;99.90
22623;DHT22;11478;51.094;7.030;2022-09-09T14:54:27;16.30;99.90
22623;DHT22;11478;51.094;7.030;2022-09-09T14:56:55;16.30;99.90
22623;DHT22;11478;51.094;7.030;2022-09-09T14:59:22;16.30;99.90
22623;DHT22;11478;51.094;7.030;2022-09-09T15:01:49;16.30;99.90
22623;DHT22;11478;51.094;7.030;2022-09-09T15:04:15;16.30;99.90
22623;DHT22;11478;51.094;7.030;2022-09-09T15:06:42;16.30;99.90
22623;DHT22;11478;51.094;7.030;2022-09-09T15:09:10;16.20;99.90
22623;DHT22;11478;51.094;7.030;2022-09-09T15:11:37;16.20;99.90
22623;DHT22;11478;51.094;7.030;2022-09-09T15:14:16;16.20;99.90
22623;DHT22;11478;51.094;7.030;2022-09-09T15:16:42;16.30;99.90
22623;DHT22;11478;51.094;7.030;2022-09-09T15:19:10;16.30;99.90
22623;DHT22;11478;51.094;7.030;2022-09-09T15:21:37;16.40;99.90
22623;DHT22;11478;51.094;7.030;2022-09-09T15:24:05;16.40;99.90
22623;DHT22;11478;51.094;7.030;2022-09-09T15:26:34;16.40;99.90
22623;DHT22;11478;51.094;7.030;2022-09-09T15:29:01;16.50;99.90
22623;DHT22;11478;51.094;7.030;2022-09-09T15:31:29;16.50;99.90
22623;DHT22;11478;51.094;7.030;2022-09-09T15:34:04;16.50;99.90
22623;DHT22;11478;51.094;7.030;2022-09-09T15:38:58;16.50;99.90
22623;DHT22;11478;51.094;7.030;2022-09-09T15:41:25;16.50;99.90
22623;DHT22;11478;51.094;7.030;2022-09-09T15:43:53;16.50;99.90
22623;DHT22;11478;51.094;7.030;2022-09-09T15:46:26;16.40;99.90
22623;DHT22;11478;51.094;7.030;2022-09-09T15:49:03;16.40;99.90
22623;DHT22;11478;51.094;7.030;2022-09-09T15:51:28;16.40;99.90
22623;DHT22;11478;51.094;7.030;2022-09-09T15:53:57;16.40;99.90
22623;DHT22;11478;51.094;7.030;2022-09-09T15:56:25;16.40;99.90
22623;DHT22;11478;51.094;7.030;2022-09-09T15:58:51;16.50;99.90
22623;DHT22;11478;51.094;7.030;2022-09-09T16:01:18;16.50;99.90
22623;DHT22;11478;51.094;7.030;2022-09-09T16:03:45;16.50;99.90
22623;DHT22;11478;51.094;7.030;2022-09-09T16:06:18;16.50;99.90
22623;DHT22;11478;51.094;7.030;2022-09-09T16:08:45;16.50;99.90
22623;DHT22;11478;51.094;7.030;2022-09-09T16:11:14;16.50;99.90
22623;DHT22;11478;51.094;7.030;2022-09-09T16:13:41;16.60;99.90
22623;DHT22;11478;51.094;7.030;2022-09-09T16:16:13;16.60;99.90
22623;DHT22;11478;51.094;7.030;2022-09-09T16:18:45;16.60;99.90
22623;DHT22;11478;51.094;7.030;2022-09-09T16:21:23;16.60;99.90
22623;DHT22;11478;51.094;7.030;2022-09-09T16:23:51;16.60;99.90
22623;DHT22;11478;51.094;7.030;2022-09-09T16:26:18;16.70;99.90
22623;DHT22;11478;51.094;7.030;2022-09-09T16:28:44;16.70;99.90
22623;DHT22;11478;51.094;7.030;2022-09-09T16:31:22;16.70;99.90
22623;DHT22;11478;51.094;7.030;2022-09-09T16:33:48;16.70;99.90
22623;DHT22;11478;51.094;7.030;2022-09-09T16:36:21;16.60;99.90
22623;DHT22;11478;51.094;7.030;2022-09-09T16:38:51;16.60;99.90
22623;DHT22;11478;51.094;7.030;2022-09-09T16:41:17;16.60;99.90
22623;DHT22;11478;51.094;7.030;2022-09-09T16:43:44;16.60;99.90
22623;DHT22;11478;51.094;7.030;2022-09-09T16:46:16;16.60;99.90
22623;DHT22;11478;51.094;7.030;2022-09-09T16:48:44;16.60;99.90
22623;DHT22;11478;51.094;7.030;2022-09-09T16:51:23;16.50;99.90
22623;DHT22;11478;51.094;7.030;2022-09-09T16:53:50;16.40;99.90
22623;DHT22;11478;51.094;7.030;2022-09-09T16:56:19;16.40;99.90
22623;DHT22;11478;51.094;7.030;2022-09-09T16:58:50;16.30;99.90
22623;DHT22;11478;51.094;7.030;2022-09-09T17:01:17;16.30;99.90
22623;DHT22;11478;51.094;7.030;2022-09-09T17:03:43;16.20;99.90
22623;DHT22;11478;51.094;7.030;2022-09-09T17:06:14;16.20;99.90
22623;DHT22;11478;51.094;7.030;2022-09-09T17:08:41;16.20;99.90
22623;DHT22;11478;51.094;7.030;2022-09-09T17:11:19;16.20;99.90
22623;DHT22;11478;51.094;7.030;2022-09-09T17:13:46;16.10;99.90
22623;DHT22;11478;51.094;7.030;2022-09-09T17:16:13;16.00;99.90
22623;DHT22;11478;51.094;7.030;2022-09-09T17:18:39;16.00;99.90
22623;DHT22;11478;51.094;7.030;2022-09-09T17:21:17;16.00;99.90
22623;DHT22;11478;51.094;7.030;2022-09-09T17:23:44;16.00;99.90
22623;DHT22;11478;51.094;7.030;2022-09-09T17:26:12;15.90;99.90
22623;DHT22;11478;51.094;7.030;2022-09-09T17:28:40;15.90;99.90
22623;DHT22;11478;51.094;7.030;2022-09-09T17:31:12;15.90;99.90
22623;DHT22;11478;51.094;7.030;2022-09-09T17:33:40;15.80;99.90
22623;DHT22;11478;51.094;7.030;2022-09-09T17:36:19;15.80;99.90
22623;DHT22;11478;51.094;7.030;2022-09-09T17:38:48;15.80;99.90
22623;DHT22;11478;51.094;7.030;2022-09-09T17:41:18;15.80;99.90
22623;DHT22;11478;51.094;7.030;2022-09-09T17:43:45;15.70;99.90
22623;DHT22;11478;51.094;7.030;2022-09-09T17:48:49;15.70;99.90
22623;DHT22;11478;51.094;7.030;2022-09-09T17:51:21;15.70;99.90
22623;DHT22;11478;51.094;7.030;2022-09-09T17:53:54;15.70;99.90
22623;DHT22;11478;51.094;7.030;2022-09-09T17:56:22;15.70;99.90
22623;DHT22;11478;51.094;7.030;2022-09-09T17:58:50;15.70;99.90
22623;DHT22;11478;51.094;7.030;2022-09-09T18:01:22;15.60;99.90
22623;DHT22;11478;51.094;7.030;2022-09-09T18:03:49;15.50;99.90
22623;DHT22;11478;51.094;7.030;2022-09-09T18:06:23;15.50;99.90
22623;DHT22;11478;51.094;7.030;2022-09-09T18:09:03;15.40;99.90
22623;DHT22;11478;51.094;7.030;2022-09-09T18:11:32;15.40;99.90
22623;DHT22;11478;51.094;7.030;2022-09-09T18:14:02;15.40;99.90
22623;DHT22;11478;51.094;7.030;2022-09-09T18:16:31;15.30;99.90
22623;DHT22;11478;51.094;7.030;2022-09-09T18:19:01;15.30;99.90